createdAt,value
2022-12-07T00:00:22.122Z,293
2022-12-07T00:01:22.073Z,238
2022-12-07T00:02:22.089Z,367
2022-12-07T00:03:22.079Z,275
2022-12-07T00:04:22.070Z,402
2022-12-07T00:05:22.023Z,704
2022-12-07T00:06:22.079Z,731
2022-12-07T00:07:27.571Z,839
2022-12-07T00:08:22.186Z,914
2022-12-07T00:09:22.116Z,1023
2022-12-07T00:10:22.048Z,1102
2022-12-07T00:11:22.133Z,948
2022-12-07T00:12:22.050Z,772
2022-12-07T00:13:22.064Z,1014
2022-12-07T00:14:22.095Z,1032
2022-12-07T00:15:22.044Z,1133
2022-12-07T00:16:22.208Z,824
2022-12-07T00:17:22.086Z,761
2022-12-07T00:18:22.059Z,1207
2022-12-07T00:19:22.055Z,1092
2022-12-07T00:20:22.043Z,1249
2022-12-07T00:21:22.047Z,848
2022-12-07T00:22:22.088Z,1226
2022-12-07T00:23:22.055Z,1014
2022-12-07T00:24:22.130Z,999
2022-12-07T00:25:22.100Z,1365
2022-12-07T00:26:22.071Z,948
2022-12-07T00:27:22.073Z,1251
2022-12-07T00:28:22.045Z,1292
2022-12-07T00:29:22.029Z,1141
2022-12-07T00:30:22.041Z,1227
2022-12-07T00:31:22.145Z,657
2022-12-07T00:32:22.096Z,1282
2022-12-07T00:33:22.034Z,1181
2022-12-07T00:34:22.050Z,1163
2022-12-07T00:35:22.045Z,1101
2022-12-07T00:36:26.581Z,1356
2022-12-07T00:37:22.048Z,1429
2022-12-07T00:38:22.045Z,1288
2022-12-07T00:39:22.034Z,1159
2022-12-07T00:40:22.112Z,1251
2022-12-07T00:41:22.068Z,1555
2022-12-07T00:42:22.054Z,1703
2022-12-07T00:43:22.037Z,1138
2022-12-07T00:44:22.014Z,1091
2022-12-07T00:45:22.046Z,1254
2022-12-07T00:46:22.221Z,1538
2022-12-07T00:47:22.112Z,1332
2022-12-07T00:48:22.086Z,900
2022-12-07T00:49:22.060Z,1423
2022-12-07T00:50:22.037Z,1328
2022-12-07T00:51:22.063Z,1324
2022-12-07T00:52:22.044Z,1409
2022-12-07T00:53:22.035Z,1238
2022-12-07T00:54:22.032Z,1531
2022-12-07T00:55:22.120Z,1184
2022-12-07T00:56:22.100Z,1156
2022-12-07T00:57:22.063Z,1367
2022-12-07T00:58:22.062Z,1148
2022-12-07T00:59:22.036Z,1185
2022-12-07T01:00:22.044Z,1122
2022-12-07T01:01:22.103Z,1252
2022-12-07T01:02:22.042Z,1166
2022-12-07T01:03:22.241Z,1280
2022-12-07T01:04:22.098Z,1013
2022-12-07T01:05:22.033Z,924
2022-12-07T01:06:22.040Z,878
2022-12-07T01:07:22.050Z,715
2022-12-07T01:08:22.164Z,747
2022-12-07T01:09:22.093Z,897
2022-12-07T01:10:22.156Z,634
2022-12-07T01:11:22.088Z,477
2022-12-07T01:12:22.093Z,648
2022-12-07T01:13:22.048Z,647
2022-12-07T01:14:22.046Z,383
2022-12-07T01:15:22.167Z,488
2022-12-07T01:16:22.173Z,279
2022-12-07T01:17:22.031Z,258
2022-12-07T01:18:22.036Z,403
2022-12-07T01:19:22.080Z,201
2022-12-07T01:20:22.123Z,284
2022-12-07T01:21:22.049Z,276
2022-12-07T01:22:22.016Z,301
2022-12-07T01:23:22.042Z,367
2022-12-07T01:24:22.035Z,388
2022-12-07T01:25:22.045Z,536
2022-12-07T01:26:22.031Z,368
2022-12-07T01:27:22.087Z,284
2022-12-07T01:28:22.039Z,240
2022-12-07T01:29:22.035Z,330
2022-12-07T01:30:22.023Z,423
2022-12-07T01:31:22.195Z,523
2022-12-07T01:32:22.012Z,357
2022-12-07T01:33:22.130Z,202
2022-12-07T01:34:22.106Z,250
2022-12-07T01:35:22.075Z,228
2022-12-07T01:36:22.103Z,245
2022-12-07T01:37:22.150Z,198
2022-12-07T01:38:22.191Z,194
2022-12-07T01:39:22.029Z,220
2022-12-07T01:40:22.026Z,221
2022-12-07T01:41:22.078Z,240
2022-12-07T01:42:22.054Z,238
2022-12-07T01:43:22.308Z,230
2022-12-07T01:44:22.020Z,227
2022-12-07T01:45:22.205Z,225
2022-12-07T01:46:22.392Z,247
2022-12-07T01:47:22.042Z,260
2022-12-07T01:48:22.027Z,278
2022-12-07T01:49:22.039Z,228
2022-12-07T01:50:22.345Z,220
2022-12-07T01:51:22.081Z,233
2022-12-07T01:52:22.030Z,245
2022-12-07T01:53:22.510Z,243
2022-12-07T01:54:22.042Z,217
2022-12-07T01:55:22.066Z,220
2022-12-07T01:56:22.029Z,201
2022-12-07T01:57:22.046Z,260
2022-12-07T01:58:22.347Z,287
2022-12-07T01:59:22.075Z,284
2022-12-07T02:00:22.035Z,271
2022-12-07T02:01:22.092Z,332
2022-12-07T02:02:22.147Z,293
2022-12-07T02:03:22.036Z,313
2022-12-07T02:04:22.082Z,279
2022-12-07T02:05:22.018Z,325
2022-12-07T02:06:22.093Z,266
2022-12-07T02:07:22.073Z,275
2022-12-07T02:08:22.150Z,504
2022-12-07T02:09:22.027Z,684
2022-12-07T02:10:22.035Z,407
2022-12-07T02:11:22.029Z,324
2022-12-07T02:12:22.087Z,244
2022-12-07T02:13:22.034Z,430
2022-12-07T02:14:22.154Z,310
2022-12-07T02:15:22.070Z,344
2022-12-07T02:16:22.166Z,324
2022-12-07T02:17:22.034Z,423
2022-12-07T02:18:22.122Z,329
2022-12-07T02:19:22.235Z,390
2022-12-07T02:20:22.288Z,335
2022-12-07T02:21:22.046Z,382
2022-12-07T02:22:22.248Z,313
2022-12-07T02:23:22.296Z,368
2022-12-07T02:24:22.369Z,519
2022-12-07T02:25:22.379Z,530
2022-12-07T02:26:22.087Z,526
2022-12-07T02:27:22.027Z,487
2022-12-07T02:28:22.038Z,425
2022-12-07T02:29:22.039Z,430
2022-12-07T02:30:22.075Z,467
2022-12-07T02:31:22.150Z,405
2022-12-07T02:32:22.012Z,582
2022-12-07T02:33:22.017Z,448
2022-12-07T02:34:22.030Z,286
2022-12-07T02:35:22.024Z,308
2022-12-07T02:36:22.304Z,286
2022-12-07T02:37:22.081Z,364
2022-12-07T02:38:22.060Z,286
2022-12-07T02:39:22.032Z,331
2022-12-07T02:40:22.070Z,409
2022-12-07T02:41:22.038Z,437
2022-12-07T02:42:22.002Z,386
2022-12-07T02:43:22.047Z,264
2022-12-07T02:44:22.023Z,332
2022-12-07T02:45:22.054Z,429
2022-12-07T02:46:22.124Z,788
2022-12-07T02:47:22.032Z,528
2022-12-07T02:48:22.029Z,561
2022-12-07T02:49:22.020Z,508
2022-12-07T02:50:22.020Z,315
2022-12-07T02:51:22.071Z,429
2022-12-07T02:52:22.040Z,315
2022-12-07T02:53:22.073Z,276
2022-12-07T02:54:22.068Z,247
2022-12-07T02:55:22.032Z,242
2022-12-07T02:56:22.024Z,281
2022-12-07T02:57:22.029Z,294
2022-12-07T02:58:22.030Z,339
2022-12-07T02:59:22.036Z,285
2022-12-07T03:00:22.047Z,302
2022-12-07T03:01:22.124Z,357
2022-12-07T03:02:22.124Z,341
2022-12-07T03:03:22.006Z,269
2022-12-07T03:04:21.995Z,285
2022-12-07T03:05:22.021Z,284
2022-12-07T03:06:22.009Z,269
2022-12-07T03:07:22.014Z,317
2022-12-07T03:08:22.096Z,288
2022-12-07T03:09:22.089Z,345
2022-12-07T03:10:22.073Z,259
2022-12-07T03:11:22.287Z,313
2022-12-07T03:12:22.057Z,337
2022-12-07T03:13:22.021Z,338
2022-12-07T03:14:22.040Z,324
2022-12-07T03:15:22.027Z,369
2022-12-07T03:16:22.091Z,453
2022-12-07T03:17:22.079Z,474
2022-12-07T03:18:22.021Z,587
2022-12-07T03:19:22.008Z,705
2022-12-07T03:20:22.015Z,367
2022-12-07T03:21:22.041Z,333
2022-12-07T03:22:22.028Z,264
2022-12-07T03:23:22.033Z,336
2022-12-07T03:24:22.078Z,339
2022-12-07T03:25:22.074Z,397
2022-12-07T03:26:22.021Z,459
2022-12-07T03:27:22.030Z,390
2022-12-07T03:28:22.018Z,433
2022-12-07T03:29:22.026Z,337
2022-12-07T03:30:22.024Z,420
2022-12-07T03:31:22.101Z,438
2022-12-07T03:32:22.105Z,339
2022-12-07T03:33:22.073Z,317
2022-12-07T03:34:22.029Z,429
2022-12-07T03:35:22.070Z,373
2022-12-07T03:36:22.005Z,540
2022-12-07T03:37:22.018Z,585
2022-12-07T03:38:22.026Z,344
2022-12-07T03:39:22.034Z,389
2022-12-07T03:40:22.068Z,341
2022-12-07T03:41:22.058Z,327
2022-12-07T03:42:22.026Z,351
2022-12-07T03:43:22.010Z,427
2022-12-07T03:44:22.015Z,333
2022-12-07T03:45:22.042Z,457
2022-12-07T03:46:22.137Z,313
2022-12-07T03:47:22.017Z,303
2022-12-07T03:48:22.066Z,302
2022-12-07T03:49:22.053Z,286
2022-12-07T03:50:22.027Z,291
2022-12-07T03:51:22.026Z,279
2022-12-07T03:52:22.021Z,298
2022-12-07T03:53:22.011Z,374
2022-12-07T03:54:22.017Z,380
2022-12-07T03:55:22.010Z,323
2022-12-07T03:56:22.085Z,389
2022-12-07T03:57:22.070Z,337
2022-12-07T03:58:22.026Z,368
2022-12-07T03:59:22.011Z,358
2022-12-07T04:00:22.060Z,332
2022-12-07T04:01:22.041Z,289
2022-12-07T04:02:21.999Z,243
2022-12-07T04:03:22.087Z,253
2022-12-07T04:04:22.095Z,263
2022-12-07T04:05:22.016Z,233
2022-12-07T04:06:22.031Z,216
2022-12-07T04:07:22.013Z,206
2022-12-07T04:08:22.203Z,206
2022-12-07T04:09:22.023Z,196
2022-12-07T04:10:22.018Z,233
2022-12-07T04:11:22.070Z,256
2022-12-07T04:12:22.052Z,251
2022-12-07T04:13:22.017Z,242
2022-12-07T04:14:22.010Z,224
2022-12-07T04:15:22.015Z,242
2022-12-07T04:16:22.146Z,265
2022-12-07T04:17:22.039Z,278
2022-12-07T04:18:21.988Z,244
2022-12-07T04:19:22.101Z,248
2022-12-07T04:20:22.052Z,256
2022-12-07T04:21:22.194Z,288
2022-12-07T04:22:22.086Z,243
2022-12-07T04:23:22.249Z,253
2022-12-07T04:24:22.229Z,278
2022-12-07T04:25:22.011Z,256
2022-12-07T04:26:21.995Z,203
2022-12-07T04:27:22.064Z,246
2022-12-07T04:28:22.070Z,249
2022-12-07T04:29:22.017Z,248
2022-12-07T04:30:22.010Z,254
2022-12-07T04:31:22.110Z,232
2022-12-07T04:32:22.027Z,251
2022-12-07T04:33:22.019Z,282
2022-12-07T04:34:22.010Z,286
2022-12-07T04:35:22.061Z,352
2022-12-07T04:36:22.047Z,299
2022-12-07T04:37:22.008Z,240
2022-12-07T04:38:22.006Z,252
2022-12-07T04:39:21.984Z,296
2022-12-07T04:40:22.012Z,265
2022-12-07T04:41:22.028Z,222
2022-12-07T04:42:22.000Z,283
2022-12-07T04:43:22.040Z,325
2022-12-07T04:44:22.050Z,259
2022-12-07T04:45:22.019Z,233
2022-12-07T04:46:22.095Z,264
2022-12-07T04:47:22.040Z,249
2022-12-07T04:48:22.020Z,236
2022-12-07T04:49:22.016Z,215
2022-12-07T04:50:22.016Z,243
2022-12-07T04:51:22.044Z,273
2022-12-07T04:52:22.045Z,257
2022-12-07T04:53:22.002Z,216
2022-12-07T04:54:22.022Z,202
2022-12-07T04:55:22.060Z,243
2022-12-07T04:56:22.006Z,232
2022-12-07T04:57:22.016Z,197
2022-12-07T04:58:22.010Z,205
2022-12-07T04:59:22.072Z,187
2022-12-07T05:00:22.016Z,266
2022-12-07T05:01:22.104Z,297
2022-12-07T05:02:22.103Z,203
2022-12-07T05:03:22.003Z,208
2022-12-07T05:04:22.011Z,198
2022-12-07T05:05:22.014Z,179
2022-12-07T05:06:22.032Z,178
2022-12-07T05:07:22.064Z,188
2022-12-07T05:08:22.087Z,179
2022-12-07T05:09:22.012Z,169
2022-12-07T05:10:22.683Z,180
2022-12-07T05:11:21.981Z,197
2022-12-07T05:12:22.005Z,176
2022-12-07T05:13:21.981Z,156
2022-12-07T05:14:22.058Z,153
2022-12-07T05:15:22.057Z,156
2022-12-07T05:16:22.119Z,127
2022-12-07T05:17:22.063Z,134
2022-12-07T05:18:22.101Z,143
2022-12-07T05:19:22.020Z,117
2022-12-07T05:20:22.014Z,135
2022-12-07T05:21:22.002Z,130
2022-12-07T05:22:22.058Z,139
2022-12-07T05:23:22.057Z,146
2022-12-07T05:24:22.006Z,143
2022-12-07T05:25:22.064Z,153
2022-12-07T05:26:22.021Z,159
2022-12-07T05:27:22.015Z,163
2022-12-07T05:28:22.052Z,151
2022-12-07T05:29:21.998Z,160
2022-12-07T05:30:22.036Z,174
2022-12-07T05:31:22.200Z,169
2022-12-07T05:32:22.022Z,196
2022-12-07T05:33:22.022Z,198
2022-12-07T05:34:22.000Z,232
2022-12-07T05:35:22.003Z,258
2022-12-07T05:36:22.036Z,242
2022-12-07T05:37:21.994Z,266
2022-12-07T05:38:22.034Z,241
2022-12-07T05:39:22.050Z,222
2022-12-07T05:40:21.976Z,209
2022-12-07T05:41:22.014Z,212
2022-12-07T05:42:22.002Z,231
2022-12-07T05:43:21.995Z,221
2022-12-07T05:44:22.019Z,191
2022-12-07T05:45:22.110Z,215
2022-12-07T05:46:22.093Z,181
2022-12-07T05:47:22.055Z,216
2022-12-07T05:48:22.064Z,216
2022-12-07T05:49:22.022Z,220
2022-12-07T05:50:22.007Z,250
2022-12-07T05:51:21.996Z,243
2022-12-07T05:52:22.010Z,247
2022-12-07T05:53:23.398Z,242
2022-12-07T05:54:22.049Z,220
2022-12-07T05:55:21.999Z,191
2022-12-07T05:56:22.010Z,204
2022-12-07T05:57:22.004Z,180
2022-12-07T05:58:22.002Z,194
2022-12-07T05:59:22.019Z,211
2022-12-07T06:00:22.028Z,226
2022-12-07T06:01:22.056Z,232
2022-12-07T06:02:22.183Z,209
2022-12-07T06:03:22.105Z,228
2022-12-07T06:04:22.003Z,249
2022-12-07T06:05:22.007Z,255
2022-12-07T06:06:22.108Z,210
2022-12-07T06:07:22.011Z,197
2022-12-07T06:08:22.085Z,191
2022-12-07T06:09:22.026Z,203
2022-12-07T06:10:22.053Z,208
2022-12-07T06:11:21.995Z,234
2022-12-07T06:12:22.010Z,229
2022-12-07T06:13:22.011Z,267
2022-12-07T06:14:22.045Z,298
2022-12-07T06:15:22.005Z,270
2022-12-07T06:16:21.996Z,380
2022-12-07T06:17:22.059Z,266
2022-12-07T06:18:22.033Z,344
2022-12-07T06:19:21.985Z,258
2022-12-07T06:20:22.019Z,253
2022-12-07T06:21:21.990Z,242
2022-12-07T06:22:22.000Z,289
2022-12-07T06:23:22.375Z,327
2022-12-07T06:24:22.001Z,341
2022-12-07T06:25:22.047Z,291
2022-12-07T06:26:22.033Z,315
2022-12-07T06:27:22.020Z,268
2022-12-07T06:28:22.008Z,285
2022-12-07T06:29:22.030Z,227
2022-12-07T06:30:22.036Z,222
2022-12-07T06:31:22.096Z,240
2022-12-07T06:32:22.036Z,228
2022-12-07T06:33:22.060Z,235
2022-12-07T06:34:22.049Z,273
2022-12-07T06:35:21.997Z,272
2022-12-07T06:36:27.058Z,245
2022-12-07T06:37:21.999Z,251
2022-12-07T06:38:22.006Z,248
2022-12-07T06:39:21.999Z,258
2022-12-07T06:40:21.997Z,285
2022-12-07T06:41:22.033Z,239
2022-12-07T06:42:22.001Z,244
2022-12-07T06:43:22.022Z,201
2022-12-07T06:44:22.029Z,198
2022-12-07T06:45:22.040Z,182
2022-12-07T06:46:22.120Z,198
2022-12-07T06:47:40.059Z,207
2022-12-07T06:48:22.004Z,190
2022-12-07T06:49:22.045Z,186
2022-12-07T06:50:21.996Z,155
2022-12-07T06:51:22.001Z,160
2022-12-07T06:52:22.012Z,148
2022-12-07T06:53:21.995Z,154
2022-12-07T06:54:22.000Z,149
2022-12-07T06:55:21.963Z,142
2022-12-07T06:56:22.015Z,153
2022-12-07T06:57:22.034Z,154
2022-12-07T06:58:22.029Z,158
2022-12-07T06:59:22.034Z,159
2022-12-07T07:00:22.603Z,153
2022-12-07T07:01:22.028Z,155
2022-12-07T07:02:22.096Z,144
2022-12-07T07:03:21.994Z,153
2022-12-07T07:04:22.065Z,168
2022-12-07T07:05:22.033Z,156
2022-12-07T07:06:21.984Z,169
2022-12-07T07:07:21.986Z,166
2022-12-07T07:08:23.053Z,193
2022-12-07T07:09:22.000Z,189
2022-12-07T07:10:22.005Z,176
2022-12-07T07:11:22.001Z,181
2022-12-07T07:12:22.031Z,187
2022-12-07T07:13:22.016Z,166
2022-12-07T07:14:21.994Z,180
2022-12-07T07:15:21.986Z,167
2022-12-07T07:16:22.011Z,176
2022-12-07T07:17:21.991Z,160
2022-12-07T07:18:22.061Z,161
2022-12-07T07:19:21.985Z,145
2022-12-07T07:20:22.043Z,151
2022-12-07T07:21:22.017Z,151
2022-12-07T07:22:22.001Z,160
2022-12-07T07:23:22.043Z,157
2022-12-07T07:24:22.003Z,145
2022-12-07T07:25:21.991Z,152
2022-12-07T07:26:23.369Z,146
2022-12-07T07:27:21.978Z,148
2022-12-07T07:28:22.021Z,146
2022-12-07T07:29:21.964Z,144
2022-12-07T07:30:21.994Z,138
2022-12-07T07:31:22.086Z,155
2022-12-07T07:32:22.015Z,146
2022-12-07T07:33:21.996Z,158
2022-12-07T07:34:22.000Z,153
2022-12-07T07:35:22.014Z,158
2022-12-07T07:36:22.027Z,149
2022-12-07T07:37:22.317Z,140
2022-12-07T07:38:21.998Z,158
2022-12-07T07:39:22.010Z,159
2022-12-07T07:40:22.015Z,147
2022-12-07T07:41:21.998Z,159
2022-12-07T07:42:22.021Z,161
2022-12-07T07:43:22.035Z,152
2022-12-07T07:44:22.043Z,157
2022-12-07T07:45:21.993Z,157
2022-12-07T07:46:22.056Z,148
2022-12-07T07:47:22.016Z,149
2022-12-07T07:48:22.006Z,151
2022-12-07T07:49:22.017Z,156
2022-12-07T07:50:22.004Z,160
2022-12-07T07:51:22.018Z,152
2022-12-07T07:52:22.015Z,147
2022-12-07T07:53:22.018Z,158
2022-12-07T07:54:21.993Z,155
2022-12-07T07:55:21.980Z,152
2022-12-07T07:56:21.997Z,158
2022-12-07T07:57:22.038Z,169
2022-12-07T07:58:21.986Z,159
2022-12-07T07:59:22.056Z,160
2022-12-07T08:00:22.071Z,166
2022-12-07T08:01:22.052Z,152
2022-12-07T08:02:22.004Z,166
2022-12-07T08:03:21.984Z,156
2022-12-07T08:04:22.060Z,168
2022-12-07T08:05:22.063Z,164
2022-12-07T08:06:22.058Z,161
2022-12-07T08:07:22.028Z,158
2022-12-07T08:08:22.129Z,149
2022-12-07T08:09:22.077Z,158
2022-12-07T08:10:22.131Z,153
2022-12-07T08:11:22.162Z,147
2022-12-07T08:12:22.222Z,157
2022-12-07T08:13:26.133Z,161
2022-12-07T08:14:22.135Z,168
2022-12-07T08:15:22.318Z,158
2022-12-07T08:16:22.471Z,168
2022-12-07T08:17:22.031Z,172
2022-12-07T08:18:22.020Z,172
2022-12-07T08:19:22.025Z,169
2022-12-07T08:20:22.006Z,171
2022-12-07T08:21:22.000Z,184
2022-12-07T08:22:22.021Z,179
2022-12-07T08:23:27.516Z,176
2022-12-07T08:24:22.037Z,188
2022-12-07T08:25:22.028Z,179
2022-12-07T08:26:21.964Z,229
2022-12-07T08:27:21.973Z,212
2022-12-07T08:28:21.971Z,202
2022-12-07T08:29:21.984Z,221
2022-12-07T08:30:22.050Z,225
2022-12-07T08:31:22.083Z,253
2022-12-07T08:32:22.019Z,243
2022-12-07T08:33:22.019Z,223
2022-12-07T08:34:22.022Z,213
2022-12-07T08:35:22.009Z,174
2022-12-07T08:36:21.988Z,208
2022-12-07T08:37:22.000Z,252
2022-12-07T08:38:22.027Z,233
2022-12-07T08:39:31.205Z,249
2022-12-07T08:40:22.015Z,299
2022-12-07T08:41:21.970Z,353
2022-12-07T08:42:21.976Z,1023
2022-12-07T08:43:21.986Z,723
2022-12-07T08:44:22.057Z,242
2022-12-07T08:45:26.631Z,192
2022-12-07T08:46:22.058Z,447
2022-12-07T08:47:22.045Z,895
2022-12-07T08:48:21.993Z,253
2022-12-07T08:49:21.966Z,238
2022-12-07T08:50:21.968Z,183
2022-12-07T08:51:21.992Z,200
2022-12-07T08:52:22.009Z,180
2022-12-07T08:53:21.961Z,178
2022-12-07T08:54:22.024Z,187
2022-12-07T08:55:21.988Z,228
2022-12-07T08:56:21.967Z,159
2022-12-07T08:57:21.981Z,137
2022-12-07T08:58:22.014Z,143
2022-12-07T08:59:21.992Z,138
2022-12-07T09:00:21.992Z,154
2022-12-07T09:01:22.058Z,152
2022-12-07T09:02:22.007Z,169
2022-12-07T09:03:21.956Z,154
2022-12-07T09:04:22.023Z,158
2022-12-07T09:05:21.985Z,162
2022-12-07T09:06:22.188Z,182
2022-12-07T09:07:22.060Z,203
2022-12-07T09:08:22.062Z,236
2022-12-07T09:09:21.999Z,367
2022-12-07T09:10:22.028Z,331
2022-12-07T09:11:27.127Z,211
2022-12-07T09:12:22.068Z,178
2022-12-07T09:13:22.001Z,206
2022-12-07T09:14:21.981Z,222
2022-12-07T09:15:22.115Z,173
2022-12-07T09:16:22.131Z,172
2022-12-07T09:17:22.016Z,221
2022-12-07T09:18:22.026Z,184
2022-12-07T09:19:21.956Z,185
2022-12-07T09:20:26.185Z,193
2022-12-07T09:21:22.042Z,182
2022-12-07T09:22:21.963Z,209
2022-12-07T09:23:22.001Z,197
2022-12-07T09:24:21.960Z,180
2022-12-07T09:25:22.031Z,199
2022-12-07T09:26:22.136Z,371
2022-12-07T09:27:22.163Z,256
2022-12-07T09:28:22.226Z,200
2022-12-07T09:29:22.291Z,189
2022-12-07T09:30:22.348Z,205
2022-12-07T09:31:24.498Z,200
2022-12-07T09:32:22.041Z,229
2022-12-07T09:33:22.150Z,184
2022-12-07T09:34:22.044Z,166
2022-12-07T09:35:22.005Z,158
2022-12-07T09:36:21.960Z,172
2022-12-07T09:37:21.960Z,170
2022-12-07T09:38:21.955Z,172
2022-12-07T09:39:21.950Z,155
2022-12-07T09:40:22.132Z,171
2022-12-07T09:41:22.004Z,169
2022-12-07T09:42:22.019Z,162
2022-12-07T09:43:22.048Z,176
2022-12-07T09:44:21.975Z,208
2022-12-07T09:45:22.032Z,196
2022-12-07T09:46:22.114Z,153
2022-12-07T09:47:21.950Z,154
2022-12-07T09:48:21.958Z,152
2022-12-07T09:49:22.035Z,168
2022-12-07T09:50:22.200Z,160
2022-12-07T09:51:24.121Z,165
2022-12-07T09:52:21.958Z,169
2022-12-07T09:53:21.960Z,160
2022-12-07T09:54:21.970Z,128
2022-12-07T09:55:21.951Z,130
2022-12-07T09:56:21.981Z,153
2022-12-07T09:57:22.041Z,143
2022-12-07T09:58:21.998Z,131
2022-12-07T09:59:21.949Z,124
2022-12-07T10:00:21.955Z,113
2022-12-07T10:01:22.071Z,115
2022-12-07T10:02:21.950Z,115
2022-12-07T10:03:21.946Z,104
2022-12-07T10:04:22.188Z,115
2022-12-07T10:05:24.379Z,115
2022-12-07T10:06:21.956Z,108
2022-12-07T10:07:22.015Z,120
2022-12-07T10:08:22.119Z,122
2022-12-07T10:09:21.974Z,119
2022-12-07T10:10:22.026Z,125
2022-12-07T10:11:21.980Z,122
2022-12-07T10:12:22.053Z,119
2022-12-07T10:13:21.996Z,126
2022-12-07T10:14:38.129Z,113
2022-12-07T10:15:22.357Z,119
2022-12-07T10:16:21.965Z,122
2022-12-07T10:17:21.947Z,110
2022-12-07T10:18:21.989Z,103
2022-12-07T10:19:21.954Z,112
2022-12-07T10:20:22.030Z,104
2022-12-07T10:21:22.006Z,110
2022-12-07T10:22:21.964Z,104
2022-12-07T10:23:21.970Z,101
2022-12-07T10:24:21.979Z,90
2022-12-07T10:25:21.994Z,103
2022-12-07T10:26:21.993Z,107
2022-12-07T10:27:21.973Z,97
2022-12-07T10:28:22.048Z,90
2022-12-07T10:29:21.980Z,95
2022-12-07T10:30:21.959Z,88
2022-12-07T10:31:22.024Z,89
2022-12-07T10:32:22.037Z,94
2022-12-07T10:33:21.958Z,90
2022-12-07T10:34:21.973Z,102
2022-12-07T10:35:21.944Z,89
2022-12-07T10:36:22.006Z,91
2022-12-07T10:37:21.957Z,85
2022-12-07T10:38:21.961Z,96
2022-12-07T10:39:21.948Z,84
2022-12-07T10:40:21.986Z,80
2022-12-07T10:41:21.970Z,82
2022-12-07T10:42:21.941Z,81
2022-12-07T10:43:22.014Z,80
2022-12-07T10:44:22.022Z,67
2022-12-07T10:45:21.989Z,79
2022-12-07T10:46:22.157Z,83
2022-12-07T10:47:22.045Z,84
2022-12-07T10:48:21.967Z,72
2022-12-07T10:49:21.944Z,78
2022-12-07T10:50:21.953Z,81
2022-12-07T10:51:22.047Z,73
2022-12-07T10:52:22.018Z,72
2022-12-07T10:53:22.000Z,68
2022-12-07T10:54:21.989Z,72
2022-12-07T10:55:21.962Z,76
2022-12-07T10:56:21.974Z,76
2022-12-07T10:57:21.982Z,73
2022-12-07T10:58:21.936Z,74
2022-12-07T10:59:22.040Z,74
2022-12-07T11:00:21.988Z,69
2022-12-07T11:01:22.067Z,68
2022-12-07T11:02:22.845Z,66
2022-12-07T11:03:21.972Z,62
2022-12-07T11:04:21.973Z,69
2022-12-07T11:05:21.977Z,67
2022-12-07T11:06:21.943Z,53
2022-12-07T11:07:22.012Z,65
2022-12-07T11:08:22.170Z,60
2022-12-07T11:09:38.562Z,59
2022-12-07T11:10:22.445Z,54
2022-12-07T11:11:22.006Z,55
2022-12-07T11:12:21.946Z,64
2022-12-07T11:13:27.959Z,54
2022-12-07T11:14:22.098Z,57
2022-12-07T11:15:22.030Z,69
2022-12-07T11:16:22.214Z,60
2022-12-07T11:17:22.056Z,58
2022-12-07T11:18:21.949Z,56
2022-12-07T11:19:27.813Z,55
2022-12-07T11:20:21.941Z,53
2022-12-07T11:21:21.945Z,56
2022-12-07T11:22:21.980Z,54
2022-12-07T11:23:21.991Z,56
2022-12-07T11:24:22.056Z,50
2022-12-07T11:25:25.714Z,54
2022-12-07T11:26:21.975Z,54
2022-12-07T11:27:21.993Z,52
2022-12-07T11:28:21.943Z,54
2022-12-07T11:29:21.944Z,46
2022-12-07T11:30:22.055Z,50
2022-12-07T11:31:27.285Z,60
2022-12-07T11:32:21.942Z,56
2022-12-07T11:33:21.951Z,50
2022-12-07T11:34:21.955Z,52
2022-12-07T11:35:21.913Z,50
2022-12-07T11:36:21.943Z,52
2022-12-07T11:37:21.961Z,50
2022-12-07T11:38:24.678Z,50
2022-12-07T11:39:22.010Z,47
2022-12-07T11:40:21.973Z,50
2022-12-07T11:41:22.026Z,51
2022-12-07T11:42:21.928Z,51
2022-12-07T11:43:21.940Z,47
2022-12-07T11:44:27.198Z,48
2022-12-07T11:45:21.958Z,51
2022-12-07T11:46:22.075Z,46
2022-12-07T11:47:22.010Z,46
2022-12-07T11:48:21.945Z,43
2022-12-07T11:49:21.943Z,47
2022-12-07T11:50:22.352Z,46
2022-12-07T11:51:21.915Z,44
2022-12-07T11:52:21.991Z,41
2022-12-07T11:53:21.965Z,47
2022-12-07T11:54:22.025Z,43
2022-12-07T11:55:21.981Z,46
2022-12-07T11:56:21.931Z,39
2022-12-07T11:57:21.937Z,34
2022-12-07T11:58:21.954Z,35
2022-12-07T11:59:21.941Z,34
2022-12-07T12:00:21.967Z,36
2022-12-07T12:01:21.943Z,34
2022-12-07T12:02:22.209Z,35
2022-12-07T12:03:22.058Z,29
2022-12-07T12:04:21.947Z,28
2022-12-07T12:05:21.963Z,29
2022-12-07T12:06:21.939Z,31
2022-12-07T12:10:22.028Z,26
2022-12-07T12:11:21.981Z,37
2022-12-07T12:14:38.908Z,33
2022-12-07T12:15:21.954Z,30
2022-12-07T12:16:21.993Z,32
2022-12-07T12:17:22.109Z,30
2022-12-07T12:18:21.987Z,30
2022-12-07T12:19:21.944Z,31
2022-12-07T12:20:21.946Z,29
2022-12-07T12:21:21.945Z,27
2022-12-07T12:22:21.992Z,28
2022-12-07T12:23:21.931Z,27
2022-12-07T12:24:21.940Z,26
2022-12-07T12:25:22.031Z,25
2022-12-07T12:26:22.147Z,30
2022-12-07T12:27:21.925Z,26
2022-12-07T12:28:21.977Z,26
2022-12-07T12:29:21.951Z,28
2022-12-07T12:30:21.916Z,28
2022-12-07T12:31:22.087Z,28
2022-12-07T12:32:22.152Z,25
2022-12-07T12:33:22.032Z,29
2022-12-07T12:34:21.996Z,28
2022-12-07T12:35:21.946Z,29
2022-12-07T12:36:22.077Z,25
2022-12-07T12:37:21.944Z,25
2022-12-07T12:38:21.944Z,21
2022-12-07T12:39:22.011Z,22
2022-12-07T12:40:21.936Z,21
2022-12-07T12:41:22.083Z,22
2022-12-07T12:42:22.029Z,27
2022-12-07T12:43:21.950Z,24
2022-12-07T12:44:21.935Z,26
2022-12-07T12:45:21.958Z,24
2022-12-07T12:46:22.021Z,29
2022-12-07T12:47:21.949Z,27
2022-12-07T12:48:21.942Z,21
2022-12-07T12:49:22.000Z,23
2022-12-07T12:50:21.998Z,25
2022-12-07T12:51:21.945Z,29
2022-12-07T12:52:21.933Z,32
2022-12-07T12:53:21.926Z,28
2022-12-07T12:54:21.925Z,23
2022-12-07T12:55:21.935Z,28
2022-12-07T12:56:21.927Z,28
2022-12-07T12:57:22.016Z,29
2022-12-07T12:58:21.945Z,27
2022-12-07T12:59:21.921Z,21
2022-12-07T13:00:21.967Z,23
2022-12-07T13:01:21.992Z,21
2022-12-07T13:02:22.001Z,22
2022-12-07T13:03:21.964Z,24
2022-12-07T13:04:21.996Z,21
2022-12-07T13:05:21.968Z,26
2022-12-07T13:06:21.935Z,25
2022-12-07T13:07:21.937Z,24
2022-12-07T13:08:21.989Z,22
2022-12-07T13:09:21.931Z,26
2022-12-07T13:10:21.931Z,22
2022-12-07T13:11:21.909Z,28
2022-12-07T13:12:22.010Z,22
2022-12-07T13:13:22.016Z,22
2022-12-07T13:14:21.941Z,27
2022-12-07T13:15:21.927Z,19
2022-12-07T13:16:22.008Z,22
2022-12-07T13:17:21.931Z,26
2022-12-07T13:18:21.979Z,26
2022-12-07T13:19:21.925Z,28
2022-12-07T13:20:21.988Z,26
2022-12-07T13:21:21.980Z,36
2022-12-07T13:22:21.938Z,34
2022-12-07T13:23:21.922Z,32
2022-12-07T13:24:21.922Z,33
2022-12-07T13:25:21.958Z,34
2022-12-07T13:26:21.960Z,31
2022-12-07T13:27:22.049Z,30
2022-12-07T13:28:21.990Z,42
2022-12-07T13:29:21.928Z,33
2022-12-07T13:30:22.137Z,22
2022-12-07T13:31:22.027Z,25
2022-12-07T13:32:21.931Z,23
2022-12-07T13:33:21.926Z,26
2022-12-07T13:34:21.964Z,26
2022-12-07T13:35:21.925Z,27
2022-12-07T13:36:21.980Z,36
2022-12-07T13:37:21.961Z,26
2022-12-07T13:38:21.944Z,28
2022-12-07T13:39:21.931Z,31
2022-12-07T13:40:21.918Z,29
2022-12-07T13:41:21.919Z,27
2022-12-07T13:42:21.935Z,32
2022-12-07T13:43:21.959Z,36
2022-12-07T13:44:21.976Z,33
2022-12-07T13:45:21.921Z,32
2022-12-07T13:46:22.012Z,35
2022-12-07T13:47:21.921Z,34
2022-12-07T13:48:21.937Z,35
2022-12-07T13:49:21.932Z,30
2022-12-07T13:50:21.922Z,31
2022-12-07T13:51:21.994Z,31
2022-12-07T13:52:21.969Z,31
2022-12-07T13:53:21.919Z,35
2022-12-07T13:54:21.910Z,34
2022-12-07T13:55:21.915Z,29
2022-12-07T13:56:21.936Z,29